sensor_id;sensor_type;location;lat;lon;timestamp;P1;durP1;ratioP1;P2;durP2;ratioP2
75655;SDS011;64252;51.094;13.714;2023-04-29T00:01:25;15.07;;;9.30;;
75655;SDS011;64252;51.094;13.714;2023-04-29T00:03:51;16.73;;;9.27;;
75655;SDS011;64252;51.094;13.714;2023-04-29T00:06:17;17.38;;;10.90;;
75655;SDS011;64252;51.094;13.714;2023-04-29T00:08:43;14.95;;;8.65;;
75655;SDS011;64252;51.094;13.714;2023-04-29T00:11:08;15.73;;;9.93;;
75655;SDS011;64252;51.094;13.714;2023-04-29T00:13:35;22.35;;;12.45;;
75655;SDS011;64252;51.094;13.714;2023-04-29T00:16:02;18.85;;;11.73;;
75655;SDS011;64252;51.094;13.714;2023-04-29T00:18:28;21.60;;;13.30;;
75655;SDS011;64252;51.094;13.714;2023-04-29T00:20:53;15.70;;;9.73;;
75655;SDS011;64252;51.094;13.714;2023-04-29T00:23:20;18.33;;;11.15;;
75655;SDS011;64252;51.094;13.714;2023-04-29T00:25:45;18.90;;;11.48;;
75655;SDS011;64252;51.094;13.714;2023-04-29T00:28:11;14.73;;;9.38;;
75655;SDS011;64252;51.094;13.714;2023-04-29T00:30:37;17.10;;;10.68;;
75655;SDS011;64252;51.094;13.714;2023-04-29T00:33:02;19.60;;;10.57;;
75655;SDS011;64252;51.094;13.714;2023-04-29T00:35:28;18.02;;;10.90;;
75655;SDS011;64252;51.094;13.714;2023-04-29T00:37:54;21.20;;;11.73;;
75655;SDS011;64252;51.094;13.714;2023-04-29T00:40:20;18.17;;;11.45;;
75655;SDS011;64252;51.094;13.714;2023-04-29T00:42:46;19.48;;;12.65;;
75655;SDS011;64252;51.094;13.714;2023-04-29T00:45:11;18.65;;;11.38;;
75655;SDS011;64252;51.094;13.714;2023-04-29T00:47:37;17.10;;;11.35;;
75655;SDS011;64252;51.094;13.714;2023-04-29T00:50:06;18.33;;;11.35;;
75655;SDS011;64252;51.094;13.714;2023-04-29T00:52:33;25.33;;;12.02;;
75655;SDS011;64252;51.094;13.714;2023-04-29T00:54:59;20.35;;;12.05;;
75655;SDS011;64252;51.094;13.714;2023-04-29T00:57:25;22.40;;;13.05;;
75655;SDS011;64252;51.094;13.714;2023-04-29T00:59:56;18.55;;;11.40;;
75655;SDS011;64252;51.094;13.714;2023-04-29T01:02:23;14.60;;;8.82;;
75655;SDS011;64252;51.094;13.714;2023-04-29T01:04:50;18.48;;;9.93;;
75655;SDS011;64252;51.094;13.714;2023-04-29T01:07:17;16.73;;;9.90;;
75655;SDS011;64252;51.094;13.714;2023-04-29T01:10:03;24.60;;;13.13;;
75655;SDS011;64252;51.094;13.714;2023-04-29T01:12:41;22.30;;;13.48;;
75655;SDS011;64252;51.094;13.714;2023-04-29T01:15:16;24.40;;;14.15;;
75655;SDS011;64252;51.094;13.714;2023-04-29T01:17:58;17.90;;;10.55;;
75655;SDS011;64252;51.094;13.714;2023-04-29T01:20:28;20.25;;;12.32;;
75655;SDS011;64252;51.094;13.714;2023-04-29T01:22:55;16.92;;;10.85;;
75655;SDS011;64252;51.094;13.714;2023-04-29T01:25:20;19.20;;;11.25;;
75655;SDS011;64252;51.094;13.714;2023-04-29T01:31:02;16.35;;;11.05;;
75655;SDS011;64252;51.094;13.714;2023-04-29T01:33:47;20.40;;;11.00;;
75655;SDS011;64252;51.094;13.714;2023-04-29T01:41:44;20.42;;;10.85;;
75655;SDS011;64252;51.094;13.714;2023-04-29T01:44:27;24.95;;;13.48;;
75655;SDS011;64252;51.094;13.714;2023-04-29T01:46:56;24.58;;;15.13;;
75655;SDS011;64252;51.094;13.714;2023-04-29T01:49:34;24.55;;;14.38;;
75655;SDS011;64252;51.094;13.714;2023-04-29T01:52:00;23.55;;;12.48;;
75655;SDS011;64252;51.094;13.714;2023-04-29T01:54:26;23.50;;;12.82;;
75655;SDS011;64252;51.094;13.714;2023-04-29T01:56:53;22.20;;;13.27;;
75655;SDS011;64252;51.094;13.714;2023-04-29T01:59:26;24.30;;;13.82;;
75655;SDS011;64252;51.094;13.714;2023-04-29T02:02:15;23.75;;;13.48;;
75655;SDS011;64252;51.094;13.714;2023-04-29T02:04:55;20.00;;;12.00;;
75655;SDS011;64252;51.094;13.714;2023-04-29T02:07:20;23.05;;;13.00;;
75655;SDS011;64252;51.094;13.714;2023-04-29T02:09:46;20.95;;;12.77;;
75655;SDS011;64252;51.094;13.714;2023-04-29T02:12:12;20.35;;;11.60;;
75655;SDS011;64252;51.094;13.714;2023-04-29T02:14:38;23.00;;;12.30;;
75655;SDS011;64252;51.094;13.714;2023-04-29T02:17:04;33.28;;;17.02;;
75655;SDS011;64252;51.094;13.714;2023-04-29T02:19:30;32.88;;;17.38;;
75655;SDS011;64252;51.094;13.714;2023-04-29T02:21:55;27.02;;;15.63;;
75655;SDS011;64252;51.094;13.714;2023-04-29T02:24:24;23.33;;;14.07;;
75655;SDS011;64252;51.094;13.714;2023-04-29T02:26:49;36.10;;;19.33;;
75655;SDS011;64252;51.094;13.714;2023-04-29T02:29:15;34.78;;;17.92;;
75655;SDS011;64252;51.094;13.714;2023-04-29T02:31:42;28.67;;;14.20;;
75655;SDS011;64252;51.094;13.714;2023-04-29T02:34:08;27.58;;;15.27;;
75655;SDS011;64252;51.094;13.714;2023-04-29T02:36:34;24.75;;;15.43;;
75655;SDS011;64252;51.094;13.714;2023-04-29T02:38:59;36.90;;;20.00;;
75655;SDS011;64252;51.094;13.714;2023-04-29T02:41:25;31.15;;;17.27;;
75655;SDS011;64252;51.094;13.714;2023-04-29T02:43:51;29.30;;;16.30;;
75655;SDS011;64252;51.094;13.714;2023-04-29T02:46:17;29.05;;;16.20;;
75655;SDS011;64252;51.094;13.714;2023-04-29T02:48:43;27.00;;;14.27;;
75655;SDS011;64252;51.094;13.714;2023-04-29T02:51:09;26.90;;;14.85;;
75655;SDS011;64252;51.094;13.714;2023-04-29T02:53:35;28.13;;;15.35;;
75655;SDS011;64252;51.094;13.714;2023-04-29T02:56:01;24.95;;;13.35;;
75655;SDS011;64252;51.094;13.714;2023-04-29T02:58:27;24.38;;;14.57;;
75655;SDS011;64252;51.094;13.714;2023-04-29T03:00:53;29.20;;;16.38;;
75655;SDS011;64252;51.094;13.714;2023-04-29T03:03:18;26.25;;;15.25;;
75655;SDS011;64252;51.094;13.714;2023-04-29T03:05:44;25.95;;;13.77;;
75655;SDS011;64252;51.094;13.714;2023-04-29T03:08:10;25.23;;;13.98;;
75655;SDS011;64252;51.094;13.714;2023-04-29T03:10:35;26.55;;;14.30;;
75655;SDS011;64252;51.094;13.714;2023-04-29T03:13:02;26.23;;;14.10;;
75655;SDS011;64252;51.094;13.714;2023-04-29T03:15:29;22.25;;;13.82;;
75655;SDS011;64252;51.094;13.714;2023-04-29T03:17:56;20.15;;;12.13;;
75655;SDS011;64252;51.094;13.714;2023-04-29T03:20:23;25.00;;;13.98;;
75655;SDS011;64252;51.094;13.714;2023-04-29T03:22:49;20.67;;;12.05;;
75655;SDS011;64252;51.094;13.714;2023-04-29T03:25:15;32.50;;;15.90;;
75655;SDS011;64252;51.094;13.714;2023-04-29T03:27:40;27.63;;;13.98;;
75655;SDS011;64252;51.094;13.714;2023-04-29T03:30:06;19.42;;;11.57;;
75655;SDS011;64252;51.094;13.714;2023-04-29T03:32:36;19.60;;;11.23;;
75655;SDS011;64252;51.094;13.714;2023-04-29T03:35:02;24.20;;;12.93;;
75655;SDS011;64252;51.094;13.714;2023-04-29T03:37:34;26.00;;;12.77;;
75655;SDS011;64252;51.094;13.714;2023-04-29T03:40:23;27.35;;;12.88;;
75655;SDS011;64252;51.094;13.714;2023-04-29T03:42:49;21.15;;;11.80;;
75655;SDS011;64252;51.094;13.714;2023-04-29T03:45:15;23.40;;;12.05;;
75655;SDS011;64252;51.094;13.714;2023-04-29T03:47:42;23.35;;;12.32;;
75655;SDS011;64252;51.094;13.714;2023-04-29T03:50:09;22.50;;;12.00;;
75655;SDS011;64252;51.094;13.714;2023-04-29T03:52:35;18.83;;;10.05;;
75655;SDS011;64252;51.094;13.714;2023-04-29T03:55:05;19.17;;;11.63;;
75655;SDS011;64252;51.094;13.714;2023-04-29T03:57:31;23.20;;;12.88;;
75655;SDS011;64252;51.094;13.714;2023-04-29T03:59:57;18.98;;;11.15;;
75655;SDS011;64252;51.094;13.714;2023-04-29T04:02:23;21.67;;;11.38;;
75655;SDS011;64252;51.094;13.714;2023-04-29T04:04:49;21.48;;;10.85;;
75655;SDS011;64252;51.094;13.714;2023-04-29T04:07:15;19.42;;;10.80;;
75655;SDS011;64252;51.094;13.714;2023-04-29T04:09:59;17.55;;;10.02;;
75655;SDS011;64252;51.094;13.714;2023-04-29T04:12:25;19.00;;;10.85;;
75655;SDS011;64252;51.094;13.714;2023-04-29T04:14:50;17.38;;;9.70;;
75655;SDS011;64252;51.094;13.714;2023-04-29T04:17:17;21.30;;;11.18;;
75655;SDS011;64252;51.094;13.714;2023-04-29T04:19:42;21.55;;;10.63;;
75655;SDS011;64252;51.094;13.714;2023-04-29T04:22:08;18.25;;;10.10;;
75655;SDS011;64252;51.094;13.714;2023-04-29T04:24:36;17.80;;;9.60;;
75655;SDS011;64252;51.094;13.714;2023-04-29T04:27:02;17.40;;;9.18;;
75655;SDS011;64252;51.094;13.714;2023-04-29T04:29:33;14.85;;;8.70;;
75655;SDS011;64252;51.094;13.714;2023-04-29T04:32:09;14.85;;;8.40;;
75655;SDS011;64252;51.094;13.714;2023-04-29T04:34:36;15.07;;;8.32;;
75655;SDS011;64252;51.094;13.714;2023-04-29T04:37:06;16.15;;;9.75;;
75655;SDS011;64252;51.094;13.714;2023-04-29T04:39:33;15.85;;;8.18;;
75655;SDS011;64252;51.094;13.714;2023-04-29T04:41:59;19.25;;;8.95;;
75655;SDS011;64252;51.094;13.714;2023-04-29T04:44:28;14.82;;;8.23;;
75655;SDS011;64252;51.094;13.714;2023-04-29T04:46:59;17.25;;;9.27;;
75655;SDS011;64252;51.094;13.714;2023-04-29T04:49:48;30.48;;;11.30;;
75655;SDS011;64252;51.094;13.714;2023-04-29T04:52:15;18.88;;;9.95;;
75655;SDS011;64252;51.094;13.714;2023-04-29T04:54:48;17.52;;;9.13;;
75655;SDS011;64252;51.094;13.714;2023-04-29T04:57:19;13.93;;;7.63;;
75655;SDS011;64252;51.094;13.714;2023-04-29T04:59:45;20.88;;;9.45;;
75655;SDS011;64252;51.094;13.714;2023-04-29T05:02:11;16.75;;;8.45;;
75655;SDS011;64252;51.094;13.714;2023-04-29T05:04:36;15.90;;;9.23;;
75655;SDS011;64252;51.094;13.714;2023-04-29T05:07:02;14.75;;;7.90;;
75655;SDS011;64252;51.094;13.714;2023-04-29T05:09:36;17.05;;;9.00;;
75655;SDS011;64252;51.094;13.714;2023-04-29T05:12:04;14.95;;;8.05;;
75655;SDS011;64252;51.094;13.714;2023-04-29T05:17:53;14.65;;;7.53;;
75655;SDS011;64252;51.094;13.714;2023-04-29T05:20:19;16.42;;;8.95;;
75655;SDS011;64252;51.094;13.714;2023-04-29T05:22:45;16.05;;;9.85;;
75655;SDS011;64252;51.094;13.714;2023-04-29T05:25:12;20.67;;;10.98;;
75655;SDS011;64252;51.094;13.714;2023-04-29T05:27:37;14.65;;;8.70;;
75655;SDS011;64252;51.094;13.714;2023-04-29T05:30:08;14.50;;;7.68;;
75655;SDS011;64252;51.094;13.714;2023-04-29T05:32:34;15.77;;;8.90;;
75655;SDS011;64252;51.094;13.714;2023-04-29T05:35:00;14.73;;;8.07;;
75655;SDS011;64252;51.094;13.714;2023-04-29T05:37:27;13.75;;;8.27;;
75655;SDS011;64252;51.094;13.714;2023-04-29T05:40:08;15.25;;;9.27;;
75655;SDS011;64252;51.094;13.714;2023-04-29T05:42:34;15.02;;;8.25;;
75655;SDS011;64252;51.094;13.714;2023-04-29T05:45:00;11.43;;;7.30;;
75655;SDS011;64252;51.094;13.714;2023-04-29T05:47:26;11.57;;;6.55;;
75655;SDS011;64252;51.094;13.714;2023-04-29T05:49:51;13.82;;;8.40;;
75655;SDS011;64252;51.094;13.714;2023-04-29T05:52:17;14.68;;;8.60;;
75655;SDS011;64252;51.094;13.714;2023-04-29T05:54:46;14.18;;;8.43;;
75655;SDS011;64252;51.094;13.714;2023-04-29T05:57:12;15.60;;;9.27;;
75655;SDS011;64252;51.094;13.714;2023-04-29T05:59:39;14.68;;;8.55;;
75655;SDS011;64252;51.094;13.714;2023-04-29T06:02:04;11.63;;;7.10;;
75655;SDS011;64252;51.094;13.714;2023-04-29T06:04:32;11.40;;;7.13;;
75655;SDS011;64252;51.094;13.714;2023-04-29T06:07:16;13.02;;;7.43;;
75655;SDS011;64252;51.094;13.714;2023-04-29T06:09:53;10.88;;;7.18;;
75655;SDS011;64252;51.094;13.714;2023-04-29T06:12:20;12.55;;;8.07;;
75655;SDS011;64252;51.094;13.714;2023-04-29T06:14:47;12.48;;;7.38;;
75655;SDS011;64252;51.094;13.714;2023-04-29T06:17:12;10.90;;;6.95;;
75655;SDS011;64252;51.094;13.714;2023-04-29T06:19:41;10.52;;;6.60;;
75655;SDS011;64252;51.094;13.714;2023-04-29T06:22:08;11.10;;;7.47;;
75655;SDS011;64252;51.094;13.714;2023-04-29T06:24:35;11.38;;;6.88;;
75655;SDS011;64252;51.094;13.714;2023-04-29T06:27:05;10.98;;;6.55;;
75655;SDS011;64252;51.094;13.714;2023-04-29T06:29:31;11.18;;;7.65;;
75655;SDS011;64252;51.094;13.714;2023-04-29T06:31:57;11.27;;;7.40;;
75655;SDS011;64252;51.094;13.714;2023-04-29T06:34:23;11.55;;;7.30;;
75655;SDS011;64252;51.094;13.714;2023-04-29T06:37:07;10.80;;;6.82;;
75655;SDS011;64252;51.094;13.714;2023-04-29T06:39:53;11.07;;;7.20;;
75655;SDS011;64252;51.094;13.714;2023-04-29T06:42:57;11.07;;;7.05;;
75655;SDS011;64252;51.094;13.714;2023-04-29T06:45:49;11.10;;;6.70;;
75655;SDS011;64252;51.094;13.714;2023-04-29T06:48:21;11.85;;;7.28;;
75655;SDS011;64252;51.094;13.714;2023-04-29T06:50:48;10.60;;;6.85;;
75655;SDS011;64252;51.094;13.714;2023-04-29T06:53:23;11.68;;;7.63;;
75655;SDS011;64252;51.094;13.714;2023-04-29T06:55:49;11.85;;;7.32;;
75655;SDS011;64252;51.094;13.714;2023-04-29T06:58:15;11.18;;;7.60;;
75655;SDS011;64252;51.094;13.714;2023-04-29T07:00:45;13.25;;;7.88;;
75655;SDS011;64252;51.094;13.714;2023-04-29T07:03:15;13.02;;;8.30;;
75655;SDS011;64252;51.094;13.714;2023-04-29T07:05:42;11.80;;;7.40;;
75655;SDS011;64252;51.094;13.714;2023-04-29T07:08:10;17.85;;;11.05;;
75655;SDS011;64252;51.094;13.714;2023-04-29T07:10:36;11.93;;;7.60;;
75655;SDS011;64252;51.094;13.714;2023-04-29T07:13:02;10.55;;;6.82;;
75655;SDS011;64252;51.094;13.714;2023-04-29T07:15:28;12.68;;;8.55;;
75655;SDS011;64252;51.094;13.714;2023-04-29T07:17:54;11.70;;;8.02;;
75655;SDS011;64252;51.094;13.714;2023-04-29T07:20:21;12.63;;;7.45;;
75655;SDS011;64252;51.094;13.714;2023-04-29T07:22:47;13.63;;;7.72;;
75655;SDS011;64252;51.094;13.714;2023-04-29T07:25:13;12.90;;;7.65;;
75655;SDS011;64252;51.094;13.714;2023-04-29T07:27:39;14.13;;;8.93;;
75655;SDS011;64252;51.094;13.714;2023-04-29T07:30:05;12.73;;;7.60;;
75655;SDS011;64252;51.094;13.714;2023-04-29T07:32:31;12.52;;;7.95;;
75655;SDS011;64252;51.094;13.714;2023-04-29T07:35:00;12.15;;;7.60;;
75655;SDS011;64252;51.094;13.714;2023-04-29T07:37:26;15.18;;;9.35;;
75655;SDS011;64252;51.094;13.714;2023-04-29T07:39:52;14.00;;;8.55;;
75655;SDS011;64252;51.094;13.714;2023-04-29T07:42:18;13.63;;;8.50;;
75655;SDS011;64252;51.094;13.714;2023-04-29T07:44:44;10.20;;;7.13;;
75655;SDS011;64252;51.094;13.714;2023-04-29T07:47:10;11.15;;;7.00;;
75655;SDS011;64252;51.094;13.714;2023-04-29T07:49:36;11.60;;;7.53;;
75655;SDS011;64252;51.094;13.714;2023-04-29T07:52:06;12.07;;;6.85;;
75655;SDS011;64252;51.094;13.714;2023-04-29T07:54:34;13.07;;;7.80;;
75655;SDS011;64252;51.094;13.714;2023-04-29T07:57:01;11.82;;;6.90;;
75655;SDS011;64252;51.094;13.714;2023-04-29T07:59:45;11.40;;;7.03;;
75655;SDS011;64252;51.094;13.714;2023-04-29T08:02:11;10.15;;;6.20;;
75655;SDS011;64252;51.094;13.714;2023-04-29T08:04:38;8.95;;;5.90;;
75655;SDS011;64252;51.094;13.714;2023-04-29T08:07:08;11.60;;;7.38;;
75655;SDS011;64252;51.094;13.714;2023-04-29T08:09:35;10.43;;;6.50;;
75655;SDS011;64252;51.094;13.714;2023-04-29T08:12:02;14.48;;;9.15;;
75655;SDS011;64252;51.094;13.714;2023-04-29T08:14:27;8.70;;;5.57;;
75655;SDS011;64252;51.094;13.714;2023-04-29T08:16:53;9.50;;;6.05;;
75655;SDS011;64252;51.094;13.714;2023-04-29T08:23:07;9.65;;;6.13;;
75655;SDS011;64252;51.094;13.714;2023-04-29T08:25:32;8.88;;;5.38;;
75655;SDS011;64252;51.094;13.714;2023-04-29T08:27:58;7.18;;;4.90;;
75655;SDS011;64252;51.094;13.714;2023-04-29T08:30:23;7.90;;;4.93;;
75655;SDS011;64252;51.094;13.714;2023-04-29T08:32:49;8.55;;;5.22;;
75655;SDS011;64252;51.094;13.714;2023-04-29T08:35:15;10.50;;;6.60;;
75655;SDS011;64252;51.094;13.714;2023-04-29T08:37:40;11.43;;;7.15;;
75655;SDS011;64252;51.094;13.714;2023-04-29T08:40:07;8.00;;;4.55;;
75655;SDS011;64252;51.094;13.714;2023-04-29T08:42:35;8.27;;;4.95;;
75655;SDS011;64252;51.094;13.714;2023-04-29T08:45:02;7.55;;;4.85;;
75655;SDS011;64252;51.094;13.714;2023-04-29T08:47:29;7.28;;;4.55;;
75655;SDS011;64252;51.094;13.714;2023-04-29T08:49:57;7.60;;;4.72;;
75655;SDS011;64252;51.094;13.714;2023-04-29T08:52:28;7.63;;;4.80;;
75655;SDS011;64252;51.094;13.714;2023-04-29T08:54:54;7.95;;;4.57;;
75655;SDS011;64252;51.094;13.714;2023-04-29T08:57:21;9.00;;;4.72;;
75655;SDS011;64252;51.094;13.714;2023-04-29T08:59:49;6.95;;;4.15;;
75655;SDS011;64252;51.094;13.714;2023-04-29T09:02:15;7.53;;;4.70;;
75655;SDS011;64252;51.094;13.714;2023-04-29T09:07:33;9.43;;;3.92;;
75655;SDS011;64252;51.094;13.714;2023-04-29T09:10:00;7.30;;;4.70;;
75655;SDS011;64252;51.094;13.714;2023-04-29T09:12:28;7.95;;;4.25;;
75655;SDS011;64252;51.094;13.714;2023-04-29T09:14:55;9.82;;;6.32;;
75655;SDS011;64252;51.094;13.714;2023-04-29T09:17:37;8.02;;;4.85;;
75655;SDS011;64252;51.094;13.714;2023-04-29T09:20:25;8.27;;;4.38;;
75655;SDS011;64252;51.094;13.714;2023-04-29T09:22:50;7.32;;;4.13;;
75655;SDS011;64252;51.094;13.714;2023-04-29T09:25:20;7.10;;;4.10;;
75655;SDS011;64252;51.094;13.714;2023-04-29T09:27:46;7.97;;;4.60;;
75655;SDS011;64252;51.094;13.714;2023-04-29T09:30:12;8.15;;;4.72;;
75655;SDS011;64252;51.094;13.714;2023-04-29T09:32:40;6.78;;;4.07;;
75655;SDS011;64252;51.094;13.714;2023-04-29T09:35:24;7.93;;;5.07;;
75655;SDS011;64252;51.094;13.714;2023-04-29T09:37:53;9.88;;;5.57;;
75655;SDS011;64252;51.094;13.714;2023-04-29T09:40:32;8.55;;;4.68;;
75655;SDS011;64252;51.094;13.714;2023-04-29T09:42:58;9.13;;;5.07;;
75655;SDS011;64252;51.094;13.714;2023-04-29T09:45:34;10.32;;;4.82;;
75655;SDS011;64252;51.094;13.714;2023-04-29T09:48:06;8.50;;;4.85;;
75655;SDS011;64252;51.094;13.714;2023-04-29T09:50:33;9.15;;;5.05;;
75655;SDS011;64252;51.094;13.714;2023-04-29T09:53:02;7.88;;;4.55;;
75655;SDS011;64252;51.094;13.714;2023-04-29T09:55:29;7.53;;;4.53;;
75655;SDS011;64252;51.094;13.714;2023-04-29T09:57:56;8.82;;;4.57;;
75655;SDS011;64252;51.094;13.714;2023-04-29T10:00:22;7.53;;;4.70;;
75655;SDS011;64252;51.094;13.714;2023-04-29T10:02:49;7.47;;;4.63;;
75655;SDS011;64252;51.094;13.714;2023-04-29T10:05:18;7.93;;;5.07;;
75655;SDS011;64252;51.094;13.714;2023-04-29T10:07:46;7.43;;;4.65;;
75655;SDS011;64252;51.094;13.714;2023-04-29T10:10:15;8.48;;;4.90;;
75655;SDS011;64252;51.094;13.714;2023-04-29T10:12:41;7.05;;;4.32;;
75655;SDS011;64252;51.094;13.714;2023-04-29T10:20:50;8.38;;;4.82;;
75655;SDS011;64252;51.094;13.714;2023-04-29T10:23:16;10.60;;;6.32;;
75655;SDS011;64252;51.094;13.714;2023-04-29T10:25:45;10.75;;;6.28;;
75655;SDS011;64252;51.094;13.714;2023-04-29T10:28:13;11.90;;;7.55;;
75655;SDS011;64252;51.094;13.714;2023-04-29T10:30:44;10.52;;;6.78;;
75655;SDS011;64252;51.094;13.714;2023-04-29T10:33:11;10.02;;;6.00;;
75655;SDS011;64252;51.094;13.714;2023-04-29T10:35:39;8.68;;;5.45;;
75655;SDS011;64252;51.094;13.714;2023-04-29T10:38:14;10.23;;;6.32;;
75655;SDS011;64252;51.094;13.714;2023-04-29T10:40:45;13.13;;;7.95;;
75655;SDS011;64252;51.094;13.714;2023-04-29T10:43:11;13.95;;;8.77;;
75655;SDS011;64252;51.094;13.714;2023-04-29T10:45:38;12.65;;;6.93;;
75655;SDS011;64252;51.094;13.714;2023-04-29T10:50:30;11.35;;;7.00;;
75655;SDS011;64252;51.094;13.714;2023-04-29T10:53:00;8.07;;;5.53;;
75655;SDS011;64252;51.094;13.714;2023-04-29T10:55:26;11.15;;;6.53;;
75655;SDS011;64252;51.094;13.714;2023-04-29T10:57:52;9.68;;;6.18;;
75655;SDS011;64252;51.094;13.714;2023-04-29T11:00:21;9.80;;;6.13;;
75655;SDS011;64252;51.094;13.714;2023-04-29T11:02:47;8.75;;;5.65;;
75655;SDS011;64252;51.094;13.714;2023-04-29T11:05:13;11.60;;;7.70;;
75655;SDS011;64252;51.094;13.714;2023-04-29T11:07:39;13.27;;;6.95;;
75655;SDS011;64252;51.094;13.714;2023-04-29T11:10:06;10.43;;;6.15;;
75655;SDS011;64252;51.094;13.714;2023-04-29T11:12:31;9.65;;;5.90;;
75655;SDS011;64252;51.094;13.714;2023-04-29T11:14:57;9.13;;;5.57;;
75655;SDS011;64252;51.094;13.714;2023-04-29T11:17:33;9.15;;;5.55;;
75655;SDS011;64252;51.094;13.714;2023-04-29T11:20:00;8.93;;;5.63;;
75655;SDS011;64252;51.094;13.714;2023-04-29T11:22:26;8.95;;;5.60;;
75655;SDS011;64252;51.094;13.714;2023-04-29T11:25:04;9.45;;;5.90;;
75655;SDS011;64252;51.094;13.714;2023-04-29T11:27:31;8.68;;;5.60;;
75655;SDS011;64252;51.094;13.714;2023-04-29T11:29:59;8.57;;;5.50;;
75655;SDS011;64252;51.094;13.714;2023-04-29T11:32:28;9.00;;;5.63;;
75655;SDS011;64252;51.094;13.714;2023-04-29T11:34:55;7.53;;;4.57;;
75655;SDS011;64252;51.094;13.714;2023-04-29T11:37:41;8.23;;;5.30;;
75655;SDS011;64252;51.094;13.714;2023-04-29T11:40:08;7.22;;;4.57;;
75655;SDS011;64252;51.094;13.714;2023-04-29T11:42:35;5.60;;;3.45;;
75655;SDS011;64252;51.094;13.714;2023-04-29T11:45:06;9.60;;;5.25;;
75655;SDS011;64252;51.094;13.714;2023-04-29T11:47:32;5.45;;;3.50;;
75655;SDS011;64252;51.094;13.714;2023-04-29T11:50:01;6.65;;;4.40;;
75655;SDS011;64252;51.094;13.714;2023-04-29T11:52:28;6.50;;;3.75;;
75655;SDS011;64252;51.094;13.714;2023-04-29T11:54:53;4.32;;;2.90;;
75655;SDS011;64252;51.094;13.714;2023-04-29T11:57:21;5.75;;;3.40;;
75655;SDS011;64252;51.094;13.714;2023-04-29T11:59:47;5.00;;;2.90;;
75655;SDS011;64252;51.094;13.714;2023-04-29T12:02:12;5.70;;;3.40;;
75655;SDS011;64252;51.094;13.714;2023-04-29T12:04:45;5.03;;;3.47;;
75655;SDS011;64252;51.094;13.714;2023-04-29T12:07:13;5.22;;;3.30;;
75655;SDS011;64252;51.094;13.714;2023-04-29T12:09:43;4.38;;;2.67;;
75655;SDS011;64252;51.094;13.714;2023-04-29T12:12:10;6.53;;;3.67;;
75655;SDS011;64252;51.094;13.714;2023-04-29T12:14:40;5.55;;;3.75;;
75655;SDS011;64252;51.094;13.714;2023-04-29T12:17:06;5.85;;;3.58;;
75655;SDS011;64252;51.094;13.714;2023-04-29T12:19:34;6.32;;;4.22;;
75655;SDS011;64252;51.094;13.714;2023-04-29T12:25:08;6.20;;;4.15;;
75655;SDS011;64252;51.094;13.714;2023-04-29T12:27:35;8.95;;;4.95;;
75655;SDS011;64252;51.094;13.714;2023-04-29T12:30:01;6.55;;;4.22;;
75655;SDS011;64252;51.094;13.714;2023-04-29T12:32:26;8.00;;;4.82;;
75655;SDS011;64252;51.094;13.714;2023-04-29T12:34:52;7.82;;;5.13;;
75655;SDS011;64252;51.094;13.714;2023-04-29T12:37:18;8.43;;;5.40;;
75655;SDS011;64252;51.094;13.714;2023-04-29T12:39:43;9.55;;;5.30;;
75655;SDS011;64252;51.094;13.714;2023-04-29T12:42:15;8.02;;;5.07;;
75655;SDS011;64252;51.094;13.714;2023-04-29T12:44:43;5.85;;;3.97;;
75655;SDS011;64252;51.094;13.714;2023-04-29T12:47:11;7.50;;;4.65;;
75655;SDS011;64252;51.094;13.714;2023-04-29T12:50:01;5.85;;;3.95;;
75655;SDS011;64252;51.094;13.714;2023-04-29T12:52:27;5.65;;;3.80;;
75655;SDS011;64252;51.094;13.714;2023-04-29T12:54:52;6.82;;;4.47;;
75655;SDS011;64252;51.094;13.714;2023-04-29T12:57:18;7.80;;;5.05;;
75655;SDS011;64252;51.094;13.714;2023-04-29T12:59:43;6.55;;;4.57;;
75655;SDS011;64252;51.094;13.714;2023-04-29T13:02:09;8.20;;;5.38;;
75655;SDS011;64252;51.094;13.714;2023-04-29T13:04:36;8.68;;;5.63;;
75655;SDS011;64252;51.094;13.714;2023-04-29T13:07:01;8.20;;;5.20;;
75655;SDS011;64252;51.094;13.714;2023-04-29T13:09:28;8.70;;;5.28;;
75655;SDS011;64252;51.094;13.714;2023-04-29T13:11:54;8.40;;;5.75;;
75655;SDS011;64252;51.094;13.714;2023-04-29T13:14:20;7.88;;;5.65;;
75655;SDS011;64252;51.094;13.714;2023-04-29T13:16:46;9.68;;;6.40;;
75655;SDS011;64252;51.094;13.714;2023-04-29T13:19:12;9.65;;;6.30;;
75655;SDS011;64252;51.094;13.714;2023-04-29T13:21:38;10.43;;;6.22;;
75655;SDS011;64252;51.094;13.714;2023-04-29T13:24:04;10.60;;;6.13;;
75655;SDS011;64252;51.094;13.714;2023-04-29T13:26:29;10.45;;;6.45;;
75655;SDS011;64252;51.094;13.714;2023-04-29T13:28:55;12.43;;;7.20;;
75655;SDS011;64252;51.094;13.714;2023-04-29T13:31:21;12.77;;;7.72;;
75655;SDS011;64252;51.094;13.714;2023-04-29T13:33:46;13.77;;;7.30;;
75655;SDS011;64252;51.094;13.714;2023-04-29T13:36:12;15.32;;;9.00;;
75655;SDS011;64252;51.094;13.714;2023-04-29T13:38:38;15.38;;;9.07;;
75655;SDS011;64252;51.094;13.714;2023-04-29T13:41:04;15.65;;;8.15;;
75655;SDS011;64252;51.094;13.714;2023-04-29T13:43:30;14.57;;;7.15;;
75655;SDS011;64252;51.094;13.714;2023-04-29T13:45:56;15.13;;;7.57;;
75655;SDS011;64252;51.094;13.714;2023-04-29T13:48:21;15.05;;;8.15;;
75655;SDS011;64252;51.094;13.714;2023-04-29T13:50:47;15.18;;;7.70;;
75655;SDS011;64252;51.094;13.714;2023-04-29T13:53:13;16.08;;;8.43;;
75655;SDS011;64252;51.094;13.714;2023-04-29T13:55:41;19.88;;;9.60;;
75655;SDS011;64252;51.094;13.714;2023-04-29T13:58:06;17.38;;;8.45;;
75655;SDS011;64252;51.094;13.714;2023-04-29T14:00:32;18.17;;;8.70;;
75655;SDS011;64252;51.094;13.714;2023-04-29T14:02:58;17.27;;;9.20;;
75655;SDS011;64252;51.094;13.714;2023-04-29T14:05:24;16.10;;;8.23;;
75655;SDS011;64252;51.094;13.714;2023-04-29T14:08:08;16.25;;;8.65;;
75655;SDS011;64252;51.094;13.714;2023-04-29T14:10:33;14.85;;;7.78;;
75655;SDS011;64252;51.094;13.714;2023-04-29T14:13:01;18.02;;;9.48;;
75655;SDS011;64252;51.094;13.714;2023-04-29T14:15:27;16.48;;;8.50;;
75655;SDS011;64252;51.094;13.714;2023-04-29T14:17:53;14.63;;;8.18;;
75655;SDS011;64252;51.094;13.714;2023-04-29T14:20:19;17.75;;;9.85;;
75655;SDS011;64252;51.094;13.714;2023-04-29T14:22:45;15.02;;;7.75;;
75655;SDS011;64252;51.094;13.714;2023-04-29T14:25:10;18.10;;;9.27;;
75655;SDS011;64252;51.094;13.714;2023-04-29T14:27:36;15.35;;;8.45;;
75655;SDS011;64252;51.094;13.714;2023-04-29T14:30:02;15.60;;;9.18;;
75655;SDS011;64252;51.094;13.714;2023-04-29T14:32:29;15.93;;;8.80;;
75655;SDS011;64252;51.094;13.714;2023-04-29T14:34:54;19.10;;;10.70;;
75655;SDS011;64252;51.094;13.714;2023-04-29T14:37:20;15.50;;;9.25;;
75655;SDS011;64252;51.094;13.714;2023-04-29T14:39:47;16.42;;;8.43;;
75655;SDS011;64252;51.094;13.714;2023-04-29T14:42:13;16.55;;;8.80;;
75655;SDS011;64252;51.094;13.714;2023-04-29T14:44:39;14.55;;;7.85;;
75655;SDS011;64252;51.094;13.714;2023-04-29T14:47:05;17.20;;;9.65;;
75655;SDS011;64252;51.094;13.714;2023-04-29T14:49:31;16.45;;;8.05;;
75655;SDS011;64252;51.094;13.714;2023-04-29T14:51:56;16.98;;;9.18;;
75655;SDS011;64252;51.094;13.714;2023-04-29T14:54:22;13.02;;;7.43;;
75655;SDS011;64252;51.094;13.714;2023-04-29T14:56:49;17.15;;;8.25;;